sensor_id;sensor_type;location;lat;lon;timestamp;P1;durP1;ratioP1;P2;durP2;ratioP2
74833;SDS011;63361;52.384;20.930;2023-07-13T00:02:02;21.42;;;15.13;;
74833;SDS011;63361;52.384;20.930;2023-07-13T00:04:28;23.63;;;14.73;;
74833;SDS011;63361;52.384;20.930;2023-07-13T00:06:53;22.17;;;14.67;;
74833;SDS011;63361;52.384;20.930;2023-07-13T00:09:19;20.13;;;15.00;;
74833;SDS011;63361;52.384;20.930;2023-07-13T00:11:44;21.52;;;14.70;;
74833;SDS011;63361;52.384;20.930;2023-07-13T00:14:12;20.52;;;15.45;;
74833;SDS011;63361;52.384;20.930;2023-07-13T00:16:38;22.10;;;16.03;;
74833;SDS011;63361;52.384;20.930;2023-07-13T00:19:05;21.02;;;16.05;;
74833;SDS011;63361;52.384;20.930;2023-07-13T00:21:31;21.77;;;16.03;;
74833;SDS011;63361;52.384;20.930;2023-07-13T00:23:56;23.30;;;16.60;;
74833;SDS011;63361;52.384;20.930;2023-07-13T00:26:21;20.60;;;14.73;;
74833;SDS011;63361;52.384;20.930;2023-07-13T00:28:46;20.70;;;15.27;;
74833;SDS011;63361;52.384;20.930;2023-07-13T00:31:12;21.20;;;14.87;;
74833;SDS011;63361;52.384;20.930;2023-07-13T00:33:39;18.90;;;13.88;;
74833;SDS011;63361;52.384;20.930;2023-07-13T00:36:05;20.25;;;14.88;;
74833;SDS011;63361;52.384;20.930;2023-07-13T00:38:30;21.73;;;14.53;;
74833;SDS011;63361;52.384;20.930;2023-07-13T00:40:55;20.93;;;15.10;;
74833;SDS011;63361;52.384;20.930;2023-07-13T00:43:21;22.60;;;15.90;;
74833;SDS011;63361;52.384;20.930;2023-07-13T00:48:13;22.83;;;14.87;;
74833;SDS011;63361;52.384;20.930;2023-07-13T00:50:39;21.30;;;14.90;;
74833;SDS011;63361;52.384;20.930;2023-07-13T00:53:05;23.35;;;15.05;;
74833;SDS011;63361;52.384;20.930;2023-07-13T00:55:30;19.73;;;14.40;;
74833;SDS011;63361;52.384;20.930;2023-07-13T00:57:55;22.20;;;14.60;;
74833;SDS011;63361;52.384;20.930;2023-07-13T01:00:21;24.37;;;14.97;;
74833;SDS011;63361;52.384;20.930;2023-07-13T01:02:46;22.08;;;15.15;;
74833;SDS011;63361;52.384;20.930;2023-07-13T01:05:13;23.30;;;15.68;;
74833;SDS011;63361;52.384;20.930;2023-07-13T01:07:39;24.93;;;16.23;;
74833;SDS011;63361;52.384;20.930;2023-07-13T01:10:04;21.63;;;15.02;;
74833;SDS011;63361;52.384;20.930;2023-07-13T01:12:29;22.00;;;15.30;;
74833;SDS011;63361;52.384;20.930;2023-07-13T01:14:59;21.25;;;15.55;;
74833;SDS011;63361;52.384;20.930;2023-07-13T01:17:25;20.57;;;14.37;;
74833;SDS011;63361;52.384;20.930;2023-07-13T01:19:51;22.15;;;14.30;;
74833;SDS011;63361;52.384;20.930;2023-07-13T01:22:16;20.63;;;14.50;;
74833;SDS011;63361;52.384;20.930;2023-07-13T01:24:43;20.30;;;13.65;;
74833;SDS011;63361;52.384;20.930;2023-07-13T01:27:09;21.20;;;14.63;;
74833;SDS011;63361;52.384;20.930;2023-07-13T01:29:36;25.00;;;15.10;;
74833;SDS011;63361;52.384;20.930;2023-07-13T01:32:07;23.65;;;14.63;;
74833;SDS011;63361;52.384;20.930;2023-07-13T01:34:33;21.50;;;15.88;;
74833;SDS011;63361;52.384;20.930;2023-07-13T01:36:58;21.80;;;14.63;;
74833;SDS011;63361;52.384;20.930;2023-07-13T01:39:23;22.37;;;14.80;;
74833;SDS011;63361;52.384;20.930;2023-07-13T01:41:48;23.30;;;14.50;;
74833;SDS011;63361;52.384;20.930;2023-07-13T01:44:14;22.67;;;15.33;;
74833;SDS011;63361;52.384;20.930;2023-07-13T01:46:39;19.70;;;14.10;;
74833;SDS011;63361;52.384;20.930;2023-07-13T01:49:04;24.27;;;15.50;;
74833;SDS011;63361;52.384;20.930;2023-07-13T01:51:29;22.37;;;15.83;;
74833;SDS011;63361;52.384;20.930;2023-07-13T01:53:54;21.30;;;14.50;;
74833;SDS011;63361;52.384;20.930;2023-07-13T01:56:20;22.03;;;15.37;;
74833;SDS011;63361;52.384;20.930;2023-07-13T01:58:45;25.40;;;15.47;;
74833;SDS011;63361;52.384;20.930;2023-07-13T02:01:10;26.40;;;16.65;;
74833;SDS011;63361;52.384;20.930;2023-07-13T02:03:35;25.47;;;16.77;;
74833;SDS011;63361;52.384;20.930;2023-07-13T02:06:01;23.87;;;16.10;;
74833;SDS011;63361;52.384;20.930;2023-07-13T02:08:26;26.33;;;16.50;;
74833;SDS011;63361;52.384;20.930;2023-07-13T02:10:51;25.47;;;15.83;;
74833;SDS011;63361;52.384;20.930;2023-07-13T02:13:16;23.43;;;15.23;;
74833;SDS011;63361;52.384;20.930;2023-07-13T02:15:41;20.93;;;14.03;;
74833;SDS011;63361;52.384;20.930;2023-07-13T02:18:07;24.03;;;15.63;;
74833;SDS011;63361;52.384;20.930;2023-07-13T02:20:32;22.30;;;15.10;;
74833;SDS011;63361;52.384;20.930;2023-07-13T02:22:57;23.40;;;15.23;;
74833;SDS011;63361;52.384;20.930;2023-07-13T02:25:22;25.07;;;15.30;;
74833;SDS011;63361;52.384;20.930;2023-07-13T02:27:48;28.77;;;15.17;;
74833;SDS011;63361;52.384;20.930;2023-07-13T02:30:13;29.27;;;16.00;;
74833;SDS011;63361;52.384;20.930;2023-07-13T02:32:39;29.13;;;17.20;;
74833;SDS011;63361;52.384;20.930;2023-07-13T02:35:04;26.50;;;17.03;;
74833;SDS011;63361;52.384;20.930;2023-07-13T02:37:29;26.50;;;16.80;;
74833;SDS011;63361;52.384;20.930;2023-07-13T02:39:55;24.20;;;16.03;;
74833;SDS011;63361;52.384;20.930;2023-07-13T02:42:20;22.53;;;14.53;;
74833;SDS011;63361;52.384;20.930;2023-07-13T02:44:45;27.53;;;16.17;;
74833;SDS011;63361;52.384;20.930;2023-07-13T02:47:10;26.23;;;16.27;;
74833;SDS011;63361;52.384;20.930;2023-07-13T02:49:36;28.65;;;16.70;;
74833;SDS011;63361;52.384;20.930;2023-07-13T02:52:01;25.57;;;15.13;;
74833;SDS011;63361;52.384;20.930;2023-07-13T02:54:27;27.67;;;16.80;;
74833;SDS011;63361;52.384;20.930;2023-07-13T02:56:52;21.23;;;15.17;;
74833;SDS011;63361;52.384;20.930;2023-07-13T02:59:17;23.13;;;15.13;;
74833;SDS011;63361;52.384;20.930;2023-07-13T03:01:42;21.57;;;15.10;;
74833;SDS011;63361;52.384;20.930;2023-07-13T03:04:08;23.13;;;15.07;;
74833;SDS011;63361;52.384;20.930;2023-07-13T03:06:33;22.07;;;14.97;;
74833;SDS011;63361;52.384;20.930;2023-07-13T03:08:58;22.20;;;14.97;;
74833;SDS011;63361;52.384;20.930;2023-07-13T03:11:25;27.00;;;15.27;;
74833;SDS011;63361;52.384;20.930;2023-07-13T03:13:51;23.48;;;15.50;;
74833;SDS011;63361;52.384;20.930;2023-07-13T03:16:16;27.40;;;14.73;;
74833;SDS011;63361;52.384;20.930;2023-07-13T03:18:42;22.92;;;14.68;;
74833;SDS011;63361;52.384;20.930;2023-07-13T03:21:07;27.37;;;16.23;;
74833;SDS011;63361;52.384;20.930;2023-07-13T03:23:32;26.37;;;15.00;;
74833;SDS011;63361;52.384;20.930;2023-07-13T03:26:02;23.83;;;15.50;;
74833;SDS011;63361;52.384;20.930;2023-07-13T03:28:27;24.23;;;15.43;;
74833;SDS011;63361;52.384;20.930;2023-07-13T03:31:02;21.63;;;14.03;;
74833;SDS011;63361;52.384;20.930;2023-07-13T03:33:28;22.65;;;14.27;;
74833;SDS011;63361;52.384;20.930;2023-07-13T03:35:53;22.00;;;14.70;;
74833;SDS011;63361;52.384;20.930;2023-07-13T03:38:18;23.77;;;15.00;;
74833;SDS011;63361;52.384;20.930;2023-07-13T03:40:44;22.43;;;15.37;;
74833;SDS011;63361;52.384;20.930;2023-07-13T03:43:09;22.10;;;14.17;;
74833;SDS011;63361;52.384;20.930;2023-07-13T03:45:34;21.47;;;13.73;;
74833;SDS011;63361;52.384;20.930;2023-07-13T03:48:02;20.50;;;13.10;;
74833;SDS011;63361;52.384;20.930;2023-07-13T03:50:27;18.33;;;13.20;;
74833;SDS011;63361;52.384;20.930;2023-07-13T03:52:52;17.07;;;10.93;;
74833;SDS011;63361;52.384;20.930;2023-07-13T03:55:18;16.27;;;11.17;;
74833;SDS011;63361;52.384;20.930;2023-07-13T03:57:43;15.97;;;11.00;;
74833;SDS011;63361;52.384;20.930;2023-07-13T04:00:08;12.35;;;9.23;;
74833;SDS011;63361;52.384;20.930;2023-07-13T04:02:34;13.40;;;9.23;;
74833;SDS011;63361;52.384;20.930;2023-07-13T04:05:00;11.23;;;8.88;;
74833;SDS011;63361;52.384;20.930;2023-07-13T04:07:25;13.83;;;8.70;;
74833;SDS011;63361;52.384;20.930;2023-07-13T04:09:51;12.47;;;8.87;;
74833;SDS011;63361;52.384;20.930;2023-07-13T04:12:16;13.50;;;9.03;;
74833;SDS011;63361;52.384;20.930;2023-07-13T04:14:41;12.43;;;8.83;;
74833;SDS011;63361;52.384;20.930;2023-07-13T04:17:07;12.67;;;9.00;;
74833;SDS011;63361;52.384;20.930;2023-07-13T04:19:32;13.40;;;8.97;;
74833;SDS011;63361;52.384;20.930;2023-07-13T04:21:57;13.77;;;8.33;;
74833;SDS011;63361;52.384;20.930;2023-07-13T04:24:22;12.60;;;8.60;;
74833;SDS011;63361;52.384;20.930;2023-07-13T04:26:47;11.37;;;8.57;;
74833;SDS011;63361;52.384;20.930;2023-07-13T04:29:12;11.83;;;8.50;;
74833;SDS011;63361;52.384;20.930;2023-07-13T04:31:38;12.20;;;8.77;;
74833;SDS011;63361;52.384;20.930;2023-07-13T04:34:03;13.80;;;9.27;;
74833;SDS011;63361;52.384;20.930;2023-07-13T04:36:28;13.43;;;8.90;;
74833;SDS011;63361;52.384;20.930;2023-07-13T04:38:53;13.33;;;9.37;;
74833;SDS011;63361;52.384;20.930;2023-07-13T04:41:19;13.27;;;8.83;;
74833;SDS011;63361;52.384;20.930;2023-07-13T04:43:44;15.00;;;9.67;;
74833;SDS011;63361;52.384;20.930;2023-07-13T04:46:10;14.93;;;9.40;;
74833;SDS011;63361;52.384;20.930;2023-07-13T04:48:36;13.35;;;9.40;;
74833;SDS011;63361;52.384;20.930;2023-07-13T04:51:01;12.50;;;9.30;;
74833;SDS011;63361;52.384;20.930;2023-07-13T04:53:27;13.13;;;9.47;;
74833;SDS011;63361;52.384;20.930;2023-07-13T04:55:52;13.05;;;9.65;;
74833;SDS011;63361;52.384;20.930;2023-07-13T04:58:18;15.87;;;9.57;;
74833;SDS011;63361;52.384;20.930;2023-07-13T05:00:43;12.17;;;9.93;;
74833;SDS011;63361;52.384;20.930;2023-07-13T05:03:08;13.90;;;10.03;;
74833;SDS011;63361;52.384;20.930;2023-07-13T05:05:34;14.68;;;9.88;;
74833;SDS011;63361;52.384;20.930;2023-07-13T05:07:59;13.43;;;9.97;;
74833;SDS011;63361;52.384;20.930;2023-07-13T05:10:24;14.53;;;10.07;;
74833;SDS011;63361;52.384;20.930;2023-07-13T05:12:50;13.63;;;10.03;;
74833;SDS011;63361;52.384;20.930;2023-07-13T05:15:15;16.17;;;10.43;;
74833;SDS011;63361;52.384;20.930;2023-07-13T05:17:41;17.58;;;10.88;;
74833;SDS011;63361;52.384;20.930;2023-07-13T05:20:06;15.43;;;9.63;;
74833;SDS011;63361;52.384;20.930;2023-07-13T05:22:31;14.40;;;9.47;;
74833;SDS011;63361;52.384;20.930;2023-07-13T05:24:57;15.13;;;10.33;;
74833;SDS011;63361;52.384;20.930;2023-07-13T05:27:22;15.27;;;8.93;;
74833;SDS011;63361;52.384;20.930;2023-07-13T05:29:48;15.68;;;10.10;;
74833;SDS011;63361;52.384;20.930;2023-07-13T05:32:13;14.70;;;9.37;;
74833;SDS011;63361;52.384;20.930;2023-07-13T05:34:38;11.93;;;8.97;;
74833;SDS011;63361;52.384;20.930;2023-07-13T05:37:04;15.17;;;9.77;;
74833;SDS011;63361;52.384;20.930;2023-07-13T05:39:29;14.23;;;9.03;;
74833;SDS011;63361;52.384;20.930;2023-07-13T05:41:54;13.47;;;9.63;;
74833;SDS011;63361;52.384;20.930;2023-07-13T05:44:19;14.07;;;9.90;;
74833;SDS011;63361;52.384;20.930;2023-07-13T05:46:45;13.50;;;8.87;;
74833;SDS011;63361;52.384;20.930;2023-07-13T05:49:10;13.27;;;9.27;;
74833;SDS011;63361;52.384;20.930;2023-07-13T05:51:35;13.33;;;9.83;;
74833;SDS011;63361;52.384;20.930;2023-07-13T05:54:00;14.93;;;9.67;;
74833;SDS011;63361;52.384;20.930;2023-07-13T05:56:26;13.23;;;10.10;;
74833;SDS011;63361;52.384;20.930;2023-07-13T05:58:51;13.47;;;10.03;;
74833;SDS011;63361;52.384;20.930;2023-07-13T06:01:17;16.40;;;10.55;;
74833;SDS011;63361;52.384;20.930;2023-07-13T06:03:44;15.23;;;10.77;;
74833;SDS011;63361;52.384;20.930;2023-07-13T06:06:09;17.03;;;11.77;;
74833;SDS011;63361;52.384;20.930;2023-07-13T06:08:35;15.67;;;11.40;;
74833;SDS011;63361;52.384;20.930;2023-07-13T06:11:02;15.70;;;11.53;;
74833;SDS011;63361;52.384;20.930;2023-07-13T06:13:27;15.68;;;11.45;;
74833;SDS011;63361;52.384;20.930;2023-07-13T06:15:53;16.77;;;13.43;;
74833;SDS011;63361;52.384;20.930;2023-07-13T06:18:18;16.02;;;12.27;;
74833;SDS011;63361;52.384;20.930;2023-07-13T06:20:43;18.53;;;12.80;;
74833;SDS011;63361;52.384;20.930;2023-07-13T06:23:09;15.00;;;11.20;;
74833;SDS011;63361;52.384;20.930;2023-07-13T06:25:34;15.77;;;11.53;;
74833;SDS011;63361;52.384;20.930;2023-07-13T06:28:00;14.03;;;9.90;;
74833;SDS011;63361;52.384;20.930;2023-07-13T06:30:25;13.30;;;10.13;;
74833;SDS011;63361;52.384;20.930;2023-07-13T06:32:51;12.13;;;9.90;;
74833;SDS011;63361;52.384;20.930;2023-07-13T06:35:16;13.77;;;9.63;;
74833;SDS011;63361;52.384;20.930;2023-07-13T06:37:41;12.23;;;8.80;;
74833;SDS011;63361;52.384;20.930;2023-07-13T06:40:07;12.63;;;9.60;;
74833;SDS011;63361;52.384;20.930;2023-07-13T06:42:32;12.60;;;9.30;;
74833;SDS011;63361;52.384;20.930;2023-07-13T06:44:57;10.13;;;7.93;;
74833;SDS011;63361;52.384;20.930;2023-07-13T06:47:22;11.63;;;7.73;;
74833;SDS011;63361;52.384;20.930;2023-07-13T06:49:47;9.23;;;6.53;;
74833;SDS011;63361;52.384;20.930;2023-07-13T06:52:13;12.10;;;7.77;;
74833;SDS011;63361;52.384;20.930;2023-07-13T06:54:38;9.73;;;6.50;;
74833;SDS011;63361;52.384;20.930;2023-07-13T06:57:04;7.77;;;5.03;;
74833;SDS011;63361;52.384;20.930;2023-07-13T06:59:29;6.13;;;4.40;;
74833;SDS011;63361;52.384;20.930;2023-07-13T07:01:54;5.43;;;3.67;;
74833;SDS011;63361;52.384;20.930;2023-07-13T07:04:19;6.50;;;3.60;;
74833;SDS011;63361;52.384;20.930;2023-07-13T07:06:45;6.37;;;3.50;;
74833;SDS011;63361;52.384;20.930;2023-07-13T07:09:10;7.43;;;3.97;;
74833;SDS011;63361;52.384;20.930;2023-07-13T07:11:36;7.83;;;3.63;;
74833;SDS011;63361;52.384;20.930;2023-07-13T07:14:01;7.17;;;3.73;;
74833;SDS011;63361;52.384;20.930;2023-07-13T07:16:26;5.80;;;3.33;;
74833;SDS011;63361;52.384;20.930;2023-07-13T07:18:51;6.17;;;3.87;;
74833;SDS011;63361;52.384;20.930;2023-07-13T07:21:17;5.70;;;3.80;;
74833;SDS011;63361;52.384;20.930;2023-07-13T07:23:42;7.33;;;4.10;;
74833;SDS011;63361;52.384;20.930;2023-07-13T07:26:07;7.05;;;3.80;;
74833;SDS011;63361;52.384;20.930;2023-07-13T07:28:35;5.80;;;3.72;;
74833;SDS011;63361;52.384;20.930;2023-07-13T07:31:00;6.50;;;3.70;;
74833;SDS011;63361;52.384;20.930;2023-07-13T07:33:25;8.43;;;4.20;;
74833;SDS011;63361;52.384;20.930;2023-07-13T07:35:51;8.97;;;3.80;;
74833;SDS011;63361;52.384;20.930;2023-07-13T07:38:16;7.27;;;3.60;;
74833;SDS011;63361;52.384;20.930;2023-07-13T07:40:42;6.27;;;3.70;;
74833;SDS011;63361;52.384;20.930;2023-07-13T07:43:07;6.63;;;3.83;;
74833;SDS011;63361;52.384;20.930;2023-07-13T07:45:33;6.63;;;4.20;;
74833;SDS011;63361;52.384;20.930;2023-07-13T07:47:58;8.03;;;4.03;;
74833;SDS011;63361;52.384;20.930;2023-07-13T07:50:24;7.23;;;4.40;;
74833;SDS011;63361;52.384;20.930;2023-07-13T07:52:50;10.27;;;4.55;;
74833;SDS011;63361;52.384;20.930;2023-07-13T07:55:15;8.57;;;4.67;;
74833;SDS011;63361;52.384;20.930;2023-07-13T07:57:40;7.50;;;4.27;;
74833;SDS011;63361;52.384;20.930;2023-07-13T08:00:06;7.83;;;4.67;;
74833;SDS011;63361;52.384;20.930;2023-07-13T08:02:31;13.15;;;5.20;;
74833;SDS011;63361;52.384;20.930;2023-07-13T08:04:56;7.97;;;5.33;;
74833;SDS011;63361;52.384;20.930;2023-07-13T08:07:22;9.70;;;4.87;;
74833;SDS011;63361;52.384;20.930;2023-07-13T08:09:47;8.50;;;4.80;;
74833;SDS011;63361;52.384;20.930;2023-07-13T08:12:12;10.63;;;4.63;;
74833;SDS011;63361;52.384;20.930;2023-07-13T08:14:37;9.80;;;4.30;;
74833;SDS011;63361;52.384;20.930;2023-07-13T08:17:03;9.27;;;5.00;;
74833;SDS011;63361;52.384;20.930;2023-07-13T08:19:29;9.73;;;5.18;;
74833;SDS011;63361;52.384;20.930;2023-07-13T08:21:54;7.67;;;5.00;;
74833;SDS011;63361;52.384;20.930;2023-07-13T08:24:21;8.50;;;4.80;;
74833;SDS011;63361;52.384;20.930;2023-07-13T08:26:47;10.77;;;4.55;;
74833;SDS011;63361;52.384;20.930;2023-07-13T08:29:12;8.03;;;5.03;;
74833;SDS011;63361;52.384;20.930;2023-07-13T08:31:37;8.63;;;4.90;;
74833;SDS011;63361;52.384;20.930;2023-07-13T08:34:03;8.40;;;5.00;;
74833;SDS011;63361;52.384;20.930;2023-07-13T08:36:28;9.63;;;4.97;;
74833;SDS011;63361;52.384;20.930;2023-07-13T08:38:53;11.00;;;4.97;;
74833;SDS011;63361;52.384;20.930;2023-07-13T08:41:19;9.53;;;4.90;;
74833;SDS011;63361;52.384;20.930;2023-07-13T08:43:49;8.47;;;5.00;;
74833;SDS011;63361;52.384;20.930;2023-07-13T08:46:16;8.20;;;5.07;;
74833;SDS011;63361;52.384;20.930;2023-07-13T08:48:53;7.85;;;5.00;;
74833;SDS011;63361;52.384;20.930;2023-07-13T08:51:29;7.25;;;3.63;;
74833;SDS011;63361;52.384;20.930;2023-07-13T08:54:00;7.68;;;3.30;;
74833;SDS011;63361;52.384;20.930;2023-07-13T08:56:27;7.37;;;3.23;;
74833;SDS011;63361;52.384;20.930;2023-07-13T08:58:55;7.32;;;3.35;;
74833;SDS011;63361;52.384;20.930;2023-07-13T09:01:30;11.98;;;2.92;;
74833;SDS011;63361;52.384;20.930;2023-07-13T09:04:02;5.65;;;2.70;;
74833;SDS011;63361;52.384;20.930;2023-07-13T09:17:02;3.83;;;1.45;;
74833;SDS011;63361;52.384;20.930;2023-07-13T09:19:29;5.65;;;1.90;;
74833;SDS011;63361;52.384;20.930;2023-07-13T09:21:55;4.03;;;1.90;;
74833;SDS011;63361;52.384;20.930;2023-07-13T09:26:49;6.27;;;2.00;;
74833;SDS011;63361;52.384;20.930;2023-07-13T09:29:21;4.72;;;2.20;;
74833;SDS011;63361;52.384;20.930;2023-07-13T09:31:50;5.97;;;2.13;;
74833;SDS011;63361;52.384;20.930;2023-07-13T09:34:18;4.53;;;2.53;;
74833;SDS011;63361;52.384;20.930;2023-07-13T09:36:43;5.60;;;2.23;;
74833;SDS011;63361;52.384;20.930;2023-07-13T09:44:10;4.63;;;3.08;;
74833;SDS011;63361;52.384;20.930;2023-07-13T09:46:36;7.47;;;3.40;;
74833;SDS011;63361;52.384;20.930;2023-07-13T09:49:02;6.07;;;3.17;;
74833;SDS011;63361;52.384;20.930;2023-07-13T09:51:27;7.87;;;3.70;;
74833;SDS011;63361;52.384;20.930;2023-07-13T09:53:53;7.93;;;3.73;;
74833;SDS011;63361;52.384;20.930;2023-07-13T09:56:20;8.55;;;3.97;;
74833;SDS011;63361;52.384;20.930;2023-07-13T09:58:45;8.60;;;3.40;;
74833;SDS011;63361;52.384;20.930;2023-07-13T10:01:10;9.13;;;5.20;;
74833;SDS011;63361;52.384;20.930;2023-07-13T10:03:36;7.60;;;4.20;;
74833;SDS011;63361;52.384;20.930;2023-07-13T10:06:17;7.82;;;4.65;;
74833;SDS011;63361;52.384;20.930;2023-07-13T10:08:44;6.77;;;4.03;;
74833;SDS011;63361;52.384;20.930;2023-07-13T10:11:16;7.88;;;4.32;;
74833;SDS011;63361;52.384;20.930;2023-07-13T10:13:43;7.90;;;4.32;;
74833;SDS011;63361;52.384;20.930;2023-07-13T10:16:09;10.73;;;5.00;;
74833;SDS011;63361;52.384;20.930;2023-07-13T10:18:38;9.47;;;5.60;;
74833;SDS011;63361;52.384;20.930;2023-07-13T10:21:38;7.72;;;5.00;;
74833;SDS011;63361;52.384;20.930;2023-07-13T10:23:57;9.90;;;5.80;;
74833;SDS011;63361;52.384;20.930;2023-07-13T10:26:26;9.00;;;5.55;;
74833;SDS011;63361;52.384;20.930;2023-07-13T10:28:53;9.65;;;5.70;;
74833;SDS011;63361;52.384;20.930;2023-07-13T10:31:20;10.60;;;5.55;;
74833;SDS011;63361;52.384;20.930;2023-07-13T10:33:46;8.90;;;6.30;;
74833;SDS011;63361;52.384;20.930;2023-07-13T10:36:31;11.53;;;6.23;;
74833;SDS011;63361;52.384;20.930;2023-07-13T10:38:59;9.70;;;6.30;;
74833;SDS011;63361;52.384;20.930;2023-07-13T10:41:26;9.63;;;5.65;;
74833;SDS011;63361;52.384;20.930;2023-07-13T10:43:53;10.98;;;5.90;;
74833;SDS011;63361;52.384;20.930;2023-07-13T10:46:21;9.82;;;6.35;;
74833;SDS011;63361;52.384;20.930;2023-07-13T10:48:49;9.77;;;6.17;;
74833;SDS011;63361;52.384;20.930;2023-07-13T10:51:17;11.35;;;6.03;;
74833;SDS011;63361;52.384;20.930;2023-07-13T10:53:42;11.10;;;7.30;;
74833;SDS011;63361;52.384;20.930;2023-07-13T10:56:26;11.50;;;7.72;;
74833;SDS011;63361;52.384;20.930;2023-07-13T11:02:29;12.10;;;7.07;;
74833;SDS011;63361;52.384;20.930;2023-07-13T11:04:42;12.73;;;7.47;;
74833;SDS011;63361;52.384;20.930;2023-07-13T11:07:18;13.65;;;8.25;;
74833;SDS011;63361;52.384;20.930;2023-07-13T11:09:44;14.20;;;8.05;;
74833;SDS011;63361;52.384;20.930;2023-07-13T11:23:09;13.10;;;6.82;;
74833;SDS011;63361;52.384;20.930;2023-07-13T11:25:27;9.95;;;6.30;;
74833;SDS011;63361;52.384;20.930;2023-07-13T11:32:51;11.10;;;7.50;;
74833;SDS011;63361;52.384;20.930;2023-07-13T11:35:23;10.95;;;7.85;;
74833;SDS011;63361;52.384;20.930;2023-07-13T11:37:51;14.23;;;6.90;;
74833;SDS011;63361;52.384;20.930;2023-07-13T11:40:17;12.00;;;7.27;;
74833;SDS011;63361;52.384;20.930;2023-07-13T11:42:42;11.37;;;6.97;;
74833;SDS011;63361;52.384;20.930;2023-07-13T11:45:18;54.03;;;11.83;;
74833;SDS011;63361;52.384;20.930;2023-07-13T11:47:45;15.63;;;8.82;;
74833;SDS011;63361;52.384;20.930;2023-07-13T11:50:17;17.47;;;8.10;;
74833;SDS011;63361;52.384;20.930;2023-07-13T11:52:42;13.30;;;7.82;;
74833;SDS011;63361;52.384;20.930;2023-07-13T11:55:15;19.92;;;8.63;;
74833;SDS011;63361;52.384;20.930;2023-07-13T11:57:49;12.13;;;8.43;;
74833;SDS011;63361;52.384;20.930;2023-07-13T12:00:16;15.75;;;10.50;;
74833;SDS011;63361;52.384;20.930;2023-07-13T12:02:46;22.33;;;9.65;;
74833;SDS011;63361;52.384;20.930;2023-07-13T12:05:13;20.90;;;10.27;;
74833;SDS011;63361;52.384;20.930;2023-07-13T12:07:39;15.15;;;9.43;;
74833;SDS011;63361;52.384;20.930;2023-07-13T12:10:13;13.50;;;8.83;;
74833;SDS011;63361;52.384;20.930;2023-07-13T12:12:58;15.98;;;9.25;;
74833;SDS011;63361;52.384;20.930;2023-07-13T12:15:24;14.23;;;8.05;;
74833;SDS011;63361;52.384;20.930;2023-07-13T12:17:52;11.13;;;6.57;;
74833;SDS011;63361;52.384;20.930;2023-07-13T12:20:19;11.07;;;6.57;;
74833;SDS011;63361;52.384;20.930;2023-07-13T12:22:46;12.40;;;6.20;;
74833;SDS011;63361;52.384;20.930;2023-07-13T12:25:12;10.93;;;7.35;;
74833;SDS011;63361;52.384;20.930;2023-07-13T12:27:37;13.97;;;7.40;;
74833;SDS011;63361;52.384;20.930;2023-07-13T12:30:04;10.70;;;7.80;;
74833;SDS011;63361;52.384;20.930;2023-07-13T12:32:30;12.47;;;7.37;;
74833;SDS011;63361;52.384;20.930;2023-07-13T12:34:57;10.40;;;7.38;;
74833;SDS011;63361;52.384;20.930;2023-07-13T12:37:22;14.05;;;9.43;;
74833;SDS011;63361;52.384;20.930;2023-07-13T12:39:48;14.27;;;8.97;;
74833;SDS011;63361;52.384;20.930;2023-07-13T12:42:18;15.68;;;9.70;;
74833;SDS011;63361;52.384;20.930;2023-07-13T12:44:46;15.53;;;8.93;;
74833;SDS011;63361;52.384;20.930;2023-07-13T12:47:12;19.83;;;9.35;;
74833;SDS011;63361;52.384;20.930;2023-07-13T12:49:40;17.57;;;9.83;;
74833;SDS011;63361;52.384;20.930;2023-07-13T12:52:16;16.45;;;9.40;;
74833;SDS011;63361;52.384;20.930;2023-07-13T12:54:51;13.07;;;9.40;;
74833;SDS011;63361;52.384;20.930;2023-07-13T12:57:17;12.77;;;8.50;;
74833;SDS011;63361;52.384;20.930;2023-07-13T12:59:42;13.57;;;8.00;;
74833;SDS011;63361;52.384;20.930;2023-07-13T13:05:02;13.63;;;8.68;;
74833;SDS011;63361;52.384;20.930;2023-07-13T13:07:29;11.20;;;8.20;;
74833;SDS011;63361;52.384;20.930;2023-07-13T13:09:54;12.40;;;8.07;;
74833;SDS011;63361;52.384;20.930;2023-07-13T13:12:20;15.67;;;8.20;;
74833;SDS011;63361;52.384;20.930;2023-07-13T13:14:45;12.53;;;7.77;;
74833;SDS011;63361;52.384;20.930;2023-07-13T13:17:44;14.47;;;7.50;;
74833;SDS011;63361;52.384;20.930;2023-07-13T13:20:04;10.95;;;6.95;;
74833;SDS011;63361;52.384;20.930;2023-07-13T13:22:31;11.07;;;6.93;;
74833;SDS011;63361;52.384;20.930;2023-07-13T13:24:57;11.25;;;7.03;;
74833;SDS011;63361;52.384;20.930;2023-07-13T13:27:22;14.57;;;7.43;;
74833;SDS011;63361;52.384;20.930;2023-07-13T13:29:49;13.20;;;7.07;;
74833;SDS011;63361;52.384;20.930;2023-07-13T13:32:15;9.30;;;6.80;;
74833;SDS011;63361;52.384;20.930;2023-07-13T13:34:40;8.00;;;5.80;;
74833;SDS011;63361;52.384;20.930;2023-07-13T13:37:39;10.97;;;6.37;;
74833;SDS011;63361;52.384;20.930;2023-07-13T13:39:57;10.20;;;5.75;;
74833;SDS011;63361;52.384;20.930;2023-07-13T13:42:22;10.30;;;6.83;;
74833;SDS011;63361;52.384;20.930;2023-07-13T13:44:49;10.25;;;6.38;;
74833;SDS011;63361;52.384;20.930;2023-07-13T13:47:21;14.00;;;6.80;;
74833;SDS011;63361;52.384;20.930;2023-07-13T13:49:47;13.02;;;7.88;;
74833;SDS011;63361;52.384;20.930;2023-07-13T13:52:12;11.20;;;7.33;;
74833;SDS011;63361;52.384;20.930;2023-07-13T13:54:37;12.43;;;8.20;;
74833;SDS011;63361;52.384;20.930;2023-07-13T13:57:03;12.87;;;7.57;;
74833;SDS011;63361;52.384;20.930;2023-07-13T13:59:29;10.25;;;7.03;;
74833;SDS011;63361;52.384;20.930;2023-07-13T14:01:57;11.13;;;6.20;;
74833;SDS011;63361;52.384;20.930;2023-07-13T14:04:25;11.20;;;6.40;;
74833;SDS011;63361;52.384;20.930;2023-07-13T14:06:50;10.80;;;6.77;;
74833;SDS011;63361;52.384;20.930;2023-07-13T14:09:16;10.10;;;7.07;;
74833;SDS011;63361;52.384;20.930;2023-07-13T14:11:42;12.75;;;7.60;;
74833;SDS011;63361;52.384;20.930;2023-07-13T14:14:09;15.23;;;8.70;;
74833;SDS011;63361;52.384;20.930;2023-07-13T14:16:37;13.60;;;7.03;;
74833;SDS011;63361;52.384;20.930;2023-07-13T14:19:02;11.23;;;6.57;;
74833;SDS011;63361;52.384;20.930;2023-07-13T14:21:28;8.67;;;5.63;;
74833;SDS011;63361;52.384;20.930;2023-07-13T14:23:53;9.57;;;5.65;;
74833;SDS011;63361;52.384;20.930;2023-07-13T14:26:20;9.30;;;5.93;;
74833;SDS011;63361;52.384;20.930;2023-07-13T14:28:50;8.82;;;6.25;;
74833;SDS011;63361;52.384;20.930;2023-07-13T14:31:16;10.50;;;6.68;;
74833;SDS011;63361;52.384;20.930;2023-07-13T14:33:41;10.73;;;6.13;;
74833;SDS011;63361;52.384;20.930;2023-07-13T14:36:18;9.67;;;6.40;;
74833;SDS011;63361;52.384;20.930;2023-07-13T14:38:46;11.25;;;6.40;;
74833;SDS011;63361;52.384;20.930;2023-07-13T14:41:11;8.53;;;5.57;;
74833;SDS011;63361;52.384;20.930;2023-07-13T14:43:36;10.53;;;6.30;;
74833;SDS011;63361;52.384;20.930;2023-07-13T14:46:01;11.23;;;6.57;;
74833;SDS011;63361;52.384;20.930;2023-07-13T14:48:26;11.27;;;6.17;;
74833;SDS011;63361;52.384;20.930;2023-07-13T14:50:56;11.90;;;6.53;;
74833;SDS011;63361;52.384;20.930;2023-07-13T14:53:22;14.10;;;6.93;;
74833;SDS011;63361;52.384;20.930;2023-07-13T14:55:47;13.30;;;7.13;;
74833;SDS011;63361;52.384;20.930;2023-07-13T14:58:12;13.40;;;7.20;;
74833;SDS011;63361;52.384;20.930;2023-07-13T15:00:38;13.52;;;6.70;;